Time;durP1;ratioP1;P1;durP2;ratioP2;P2;SDS_P1;SDS_P2;PMS_P1;PMS_P2;Temp;Humidity;BMP_temperature;BMP_pressure;BME280_temperature;BME280_humidity;BME280_pressure;Samples;Min_cycle;Max_cycle;Signal;HPM_P1;HPM_P2
2022/04/20 00:01:28;;;;;;;;;;;;;;;5.39;70.31;100249.09;86213;1327;23161;-78
2022/04/20 00:03:32;;;;;;;;;;;;;;;5.44;70.19;100247.45;86180;1330;23187;-77
2022/04/20 00:05:38;;;;;;;;;;;;;;;5.50;70.13;100250.12;86133;1328;23086;-72
2022/04/20 00:07:42;;;;;;;;;;;;;;;5.56;70.06;100248.78;86174;1326;22451;-72
2022/04/20 00:09:47;;;;;;;;;;;;;;;5.62;70.07;100249.01;86204;1327;23112;-78
2022/04/20 00:11:55;;;;;;;;;;;;;;;5.67;69.81;100249.43;86175;1326;22430;-78
2022/04/20 00:14:00;;;;;;;;;;;;;;;5.72;69.88;100246.56;86183;1327;23042;-72
2022/04/20 00:16:09;;;;;;;;;;;;;;;5.74;69.84;100246.17;86202;1329;23119;-72
2022/04/20 00:18:16;;;;;;;;;;;;;;;5.76;69.85;100244.23;86141;1329;23199;-73
2022/04/20 00:20:21;;;;;;;;;;;;;;;5.76;69.94;100239.55;86086;1329;23072;-78
2022/04/20 00:22:26;;;;;;;;;;;;;;;5.79;70.31;100243.64;86144;1328;23096;-78
2022/04/20 00:24:33;;;;;;;;;;;;;;;5.80;69.98;100239.30;86156;1331;22414;-78
2022/04/20 00:26:41;;;;;;;;;;;;;;;5.81;69.72;100239.11;86173;1322;22445;-78
2022/04/20 00:28:49;;;;;;;;;;;;;;;5.81;69.89;100237.73;86176;1327;23285;-72
2022/04/20 00:30:53;;;;;;;;;;;;;;;5.80;69.97;100233.05;86137;1330;22570;-72
2022/04/20 00:33:01;;;;;;;;;;;;;;;5.79;70.11;100231.90;86150;1328;22447;-72
2022/04/20 00:35:10;;;;;;;;;;;;;;;5.77;70.19;100232.62;86162;1331;23000;-78
2022/04/20 00:37:15;;;;;;;;;;;;;;;5.74;70.01;100230.95;86148;1329;22991;-78
2022/04/20 00:39:23;;;;;;;;;;;;;;;5.71;70.40;100230.66;86141;1331;23104;-78
2022/04/20 00:41:27;;;;;;;;;;;;;;;5.69;70.42;100228.09;86138;1331;22988;-78
2022/04/20 00:43:32;;;;;;;;;;;;;;;5.67;70.35;100223.63;86155;1330;23135;-78
2022/04/20 00:45:36;;;;;;;;;;;;;;;5.67;70.57;100224.87;86181;1330;22450;-77
2022/04/20 00:47:42;;;;;;;;;;;;;;;5.63;70.87;100220.93;86142;1324;22550;-78
2022/04/20 00:49:47;;;;;;;;;;;;;;;5.60;70.96;100216.15;86192;1326;22427;-78
2022/04/20 00:51:57;;;;;;;;;;;;;;;5.58;71.00;100214.31;86149;1330;23183;-78
2022/04/20 00:54:05;;;;;;;;;;;;;;;5.57;70.96;100210.02;86087;1329;23131;-78
2022/04/20 00:56:13;;;;;;;;;;;;;;;5.54;71.31;100211.11;86178;1330;23122;-77
2022/04/20 00:58:20;;;;;;;;;;;;;;;5.52;71.18;100211.84;86152;1331;22437;-76
2022/04/20 01:00:28;;;;;;;;;;;;;;;5.52;71.45;100209.59;86153;1328;23095;-78
2022/04/20 01:02:32;;;;;;;;;;;;;;;5.50;71.41;100205.11;86153;1328;22505;-77
2022/04/20 01:04:40;;;;;;;;;;;;;;;5.50;71.64;100198.20;86159;1325;22460;-72
2022/04/20 01:06:45;;;;;;;;;;;;;;;5.51;71.42;100192.81;86155;1325;22440;-72
2022/04/20 01:08:50;;;;;;;;;;;;;;;5.52;71.57;100191.77;86166;1327;22493;-77
2022/04/20 01:10:54;;;;;;;;;;;;;;;5.54;71.43;100185.83;86166;1327;22949;-78
2022/04/20 01:12:59;;;;;;;;;;;;;;;5.54;71.71;100181.16;86141;1330;22541;-78
2022/04/20 01:15:07;;;;;;;;;;;;;;;5.54;71.54;100180.46;86203;1321;22421;-72
2022/04/20 01:17:12;;;;;;;;;;;;;;;5.55;71.61;100175.44;86142;1329;23255;-72
2022/04/20 01:19:20;;;;;;;;;;;;;;;5.55;71.93;100178.04;86155;1331;23032;-78
2022/04/20 01:21:25;;;;;;;;;;;;;;;5.53;71.97;100179.13;86188;1329;22542;-79
2022/04/20 01:23:30;;;;;;;;;;;;;;;5.51;71.99;100179.31;86152;1326;23002;-77
2022/04/20 01:25:35;;;;;;;;;;;;;;;5.51;72.23;100182.08;86194;1327;23019;-78
2022/04/20 01:27:39;;;;;;;;;;;;;;;5.51;72.00;100178.97;86184;1327;23094;-78
2022/04/20 01:29:44;;;;;;;;;;;;;;;5.52;72.72;100175.52;86157;1330;22434;-72
2022/04/20 01:31:52;;;;;;;;;;;;;;;5.52;72.50;100173.09;86180;1329;22535;-72
2022/04/20 01:33:56;;;;;;;;;;;;;;;5.52;72.53;100166.16;86102;1331;23165;-79
2022/04/20 01:36:01;;;;;;;;;;;;;;;5.51;72.50;100159.23;86062;1330;22542;-78
2022/04/20 01:38:06;;;;;;;;;;;;;;;5.51;72.59;100151.98;86176;1327;22472;-79
2022/04/20 01:40:13;;;;;;;;;;;;;;;5.51;72.52;100146.44;86138;1327;23174;-78
2022/04/20 01:42:21;;;;;;;;;;;;;;;5.52;72.71;100146.27;86175;1330;23069;-78
2022/04/20 01:44:25;;;;;;;;;;;;;;;5.52;72.89;100143.67;86151;1330;23121;-72
2022/04/20 01:46:33;;;;;;;;;;;;;;;5.51;72.79;100141.61;86096;1332;23175;-72
2022/04/20 01:48:38;;;;;;;;;;;;;;;5.50;72.97;100139.73;86174;1330;22480;-78
2022/04/20 01:53:05;;;;;;;;;;;;;;;5.48;72.93;100129.38;86156;1328;23197;-78
2022/04/20 01:55:12;;;;;;;;;;;;;;;5.49;73.20;100124.36;86136;1331;22512;-78
2022/04/20 01:57:20;;;;;;;;;;;;;;;5.50;73.22;100121.04;86133;1331;23122;-78
2022/04/20 01:59:24;;;;;;;;;;;;;;;5.51;73.89;100121.71;86136;1331;23238;-78
2022/04/20 02:03:48;;;;;;;;;;;;;;;5.53;73.81;100121.86;85922;1331;22541;-72
2022/04/20 02:05:55;;;;;;;;;;;;;;;5.55;73.64;100120.26;86141;1329;22554;-72
2022/04/20 02:08:00;;;;;;;;;;;;;;;5.58;74.00;100114.13;86085;1330;22519;-72
2022/04/20 02:10:09;;;;;;;;;;;;;;;5.64;74.31;100113.29;86143;1331;23148;-72
2022/04/20 02:12:13;;;;;;;;;;;;;;;5.67;74.16;100108.56;86183;1326;22936;-73
2022/04/20 02:14:18;;;;;;;;;;;;;;;5.71;74.38;100105.17;86157;1331;22434;-78
2022/04/20 02:16:22;;;;;;;;;;;;;;;5.75;74.06;100101.64;86152;1328;23067;-77
2022/04/20 02:18:27;;;;;;;;;;;;;;;5.80;74.35;100094.59;86137;1326;23222;-78
2022/04/20 02:20:32;;;;;;;;;;;;;;;5.83;74.40;100090.73;86181;1329;23092;-77
2022/04/20 02:22:37;;;;;;;;;;;;;;;5.84;74.32;100086.54;86078;1330;22408;-79
2022/04/20 02:24:41;;;;;;;;;;;;;;;5.86;74.33;100085.45;86153;1328;22545;-72
2022/04/20 02:26:49;;;;;;;;;;;;;;;5.86;74.31;100083.73;86167;1327;23076;-72
2022/04/20 02:28:54;;;;;;;;;;;;;;;5.86;74.04;100083.04;86144;1331;22454;-73
2022/04/20 02:31:01;;;;;;;;;;;;;;;5.87;74.70;100080.61;86090;1330;23175;-72
2022/04/20 02:33:06;;;;;;;;;;;;;;;5.86;74.38;100079.56;86137;1326;23068;-73
2022/04/20 02:35:11;;;;;;;;;;;;;;;5.86;74.79;100074.89;86179;1327;23095;-78
2022/04/20 02:37:15;;;;;;;;;;;;;;;5.84;74.72;100078.56;86146;1325;22555;-78
2022/04/20 02:39:20;;;;;;;;;;;;;;;5.80;75.01;100072.60;86179;1329;23088;-78
2022/04/20 02:41:28;;;;;;;;;;;;;;;5.78;74.84;100068.69;86169;1320;22427;-78
2022/04/20 02:43:35;;;;;;;;;;;;;;;5.75;75.07;100068.05;86127;1327;23086;-78
2022/04/20 02:45:39;;;;;;;;;;;;;;;5.74;75.12;100068.27;86131;1329;23176;-79
2022/04/20 02:47:44;;;;;;;;;;;;;;;5.74;75.55;100061.68;86140;1327;22563;-78
2022/04/20 02:49:48;;;;;;;;;;;;;;;5.72;75.55;100059.83;86175;1329;22465;-72
2022/04/20 02:51:53;;;;;;;;;;;;;;;5.71;75.64;100059.48;86088;1324;22529;-72
2022/04/20 02:53:58;;;;;;;;;;;;;;;5.71;75.31;100060.89;86156;1330;22650;-79
2022/04/20 02:56:03;;;;;;;;;;;;;;;5.70;75.60;100056.91;86137;1328;22434;-78
2022/04/20 02:58:09;;;;;;;;;;;;;;;5.67;75.68;100057.00;86155;1331;22554;-79
2022/04/20 03:00:15;;;;;;;;;;;;;;;5.65;75.87;100055.13;86152;1327;22471;-73
2022/04/20 03:02:20;;;;;;;;;;;;;;;5.64;75.78;100053.24;86158;1323;22404;-72
2022/04/20 03:04:25;;;;;;;;;;;;;;;5.63;75.86;100049.45;86189;1329;22520;-73
2022/04/20 03:06:32;;;;;;;;;;;;;;;5.62;76.26;100045.15;86158;1328;23178;-73
2022/04/20 03:08:41;;;;;;;;;;;;;;;5.59;76.52;100047.48;86147;1324;22364;-72
2022/04/20 03:10:46;;;;;;;;;;;;;;;5.57;76.20;100046.48;86158;1326;22432;-73
2022/04/20 03:12:53;;;;;;;;;;;;;;;5.57;76.60;100044.94;86181;1327;23049;-73
2022/04/20 03:14:58;;;;;;;;;;;;;;;5.54;76.62;100044.30;84663;1332;1002896;-78
2022/04/20 03:17:06;;;;;;;;;;;;;;;5.53;76.70;100038.98;86166;1328;22544;-79
2022/04/20 03:19:14;;;;;;;;;;;;;;;5.52;76.64;100035.88;86187;1329;22371;-78
2022/04/20 03:21:18;;;;;;;;;;;;;;;5.54;77.00;100038.77;86145;1327;22448;-79
2022/04/20 03:23:23;;;;;;;;;;;;;;;5.53;76.84;100031.00;86158;1328;23173;-73
2022/04/20 03:25:27;;;;;;;;;;;;;;;5.53;77.34;100035.34;86181;1329;23109;-73
2022/04/20 03:27:32;;;;;;;;;;;;;;;5.51;77.28;100028.28;86113;1328;22597;-73
2022/04/20 03:29:41;;;;;;;;;;;;;;;5.50;77.29;100028.64;86169;1328;23093;-78
2022/04/20 03:31:46;;;;;;;;;;;;;;;5.49;77.57;100029.02;86157;1328;22988;-78
2022/04/20 03:33:53;;;;;;;;;;;;;;;5.49;77.19;100026.77;86166;1330;23177;-73
2022/04/20 03:36:01;;;;;;;;;;;;;;;5.48;77.69;100022.66;85449;1327;1002928;-73
2022/04/20 03:38:07;;;;;;;;;;;;;;;5.50;77.91;100020.36;86152;1327;23176;-73
2022/04/20 03:40:15;;;;;;;;;;;;;;;5.50;77.58;100017.05;86102;1332;23144;-78
2022/04/20 03:42:20;;;;;;;;;;;;;;;5.52;77.75;100013.05;86180;1326;23068;-78
2022/04/20 03:44:24;;;;;;;;;;;;;;;5.53;78.30;100013.88;86181;1329;23199;-78
2022/04/20 03:46:29;;;;;;;;;;;;;;;5.56;78.32;100010.34;86163;1328;23048;-78
2022/04/20 03:48:36;;;;;;;;;;;;;;;5.60;78.15;100011.45;86162;1331;23124;-73
2022/04/20 03:50:45;;;;;;;;;;;;;;;5.63;78.03;100007.93;86167;1327;23061;-73
2022/04/20 03:52:53;;;;;;;;;;;;;;;5.67;78.34;100005.92;86115;1332;23166;-73
2022/04/20 03:54:57;;;;;;;;;;;;;;;5.71;78.01;100006.19;86179;1327;23047;-72
2022/04/20 03:57:07;;;;;;;;;;;;;;;5.74;78.11;100005.25;86150;1329;23208;-73
2022/04/20 03:59:12;;;;;;;;;;;;;;;5.80;78.35;100002.70;86160;1328;22538;-78
2022/04/20 04:01:16;;;;;;;;;;;;;;;5.82;78.02;100002.30;86178;1329;22473;-78
2022/04/20 04:03:24;;;;;;;;;;;;;;;5.84;78.16;100002.41;86154;1328;23153;-72
2022/04/20 04:05:32;;;;;;;;;;;;;;;5.83;78.23;100004.51;86150;1327;23099;-73
2022/04/20 04:07:41;;;;;;;;;;;;;;;5.85;78.00;100002.54;86171;1329;23132;-73
2022/04/20 04:09:49;;;;;;;;;;;;;;;5.87;78.05;99997.48;86174;1328;22502;-73
2022/04/20 04:11:57;;;;;;;;;;;;;;;5.91;78.11;99996.19;86193;1329;23077;-73
2022/04/20 04:14:04;;;;;;;;;;;;;;;5.94;78.19;99996.30;86162;1328;23262;-77
2022/04/20 04:16:09;;;;;;;;;;;;;;;5.95;78.21;99995.23;86185;1327;23168;-78
2022/04/20 04:18:19;;;;;;;;;;;;;;;5.99;78.21;99997.20;86148;1329;22582;-78
2022/04/20 04:20:24;;;;;;;;;;;;;;;6.03;78.00;99996.60;86090;1332;23122;-73
2022/04/20 04:22:29;;;;;;;;;;;;;;;6.04;78.15;99997.94;86161;1328;22413;-72
2022/04/20 04:24:37;;;;;;;;;;;;;;;6.08;78.29;99995.44;86145;1327;22446;-73
2022/04/20 04:26:42;;;;;;;;;;;;;;;6.12;78.35;99989.97;86153;1326;22466;-73
2022/04/20 04:28:46;;;;;;;;;;;;;;;6.13;78.25;99986.48;86157;1330;22978;-78
2022/04/20 04:30:51;;;;;;;;;;;;;;;6.12;78.29;99987.02;86108;1328;22443;-79
2022/04/20 04:32:55;;;;;;;;;;;;;;;6.12;78.47;99987.18;86184;1326;22534;-79
2022/04/20 04:35:03;;;;;;;;;;;;;;;6.12;78.27;99985.45;86179;1329;22436;-73
2022/04/20 04:37:14;;;;;;;;;;;;;;;6.14;78.03;99984.02;86097;1329;23118;-74
2022/04/20 04:39:21;;;;;;;;;;;;;;;6.13;78.38;99983.54;86178;1329;22462;-79
2022/04/20 04:41:28;;;;;;;;;;;;;;;6.11;78.27;99984.61;86190;1329;22456;-78
2022/04/20 04:43:33;;;;;;;;;;;;;;;6.10;78.35;99982.04;86157;1328;22428;-77
2022/04/20 04:50:26;;;;;;;;;;;;;;;6.02;78.43;99980.70;86187;1327;22890;-72
2022/04/20 04:52:31;;;;;;;;;;;;;;;6.03;78.64;99977.73;86150;1329;23209;-73
2022/04/20 04:54:35;;;;;;;;;;;;;;;6.01;79.03;99976.21;86157;1329;23008;-81
2022/04/20 04:56:40;;;;;;;;;;;;;;;6.01;78.93;99978.48;85451;1329;1002589;-78
2022/04/20 04:58:45;;;;;;;;;;;;;;;6.02;78.78;99976.39;86150;1326;23223;-74
2022/04/20 05:00:50;;;;;;;;;;;;;;;6.02;79.13;99975.15;86157;1328;23062;-73
2022/04/20 05:02:58;;;;;;;;;;;;;;;6.02;79.15;99974.11;85863;1331;316165;-80
2022/04/20 05:05:02;;;;;;;;;;;;;;;6.02;79.19;99970.48;86167;1328;22511;-73
2022/04/20 05:07:07;;;;;;;;;;;;;;;6.03;79.17;99967.86;86173;1327;22492;-73
2022/04/20 05:09:12;;;;;;;;;;;;;;;6.03;79.42;99968.55;86159;1330;22457;-73
2022/04/20 05:11:20;;;;;;;;;;;;;;;6.04;79.36;99965.06;86159;1325;22387;-74
2022/04/20 05:13:28;;;;;;;;;;;;;;;6.04;79.34;99963.48;86184;1328;22459;-77
2022/04/20 05:15:33;;;;;;;;;;;;;;;6.04;79.20;99964.52;86157;1327;22470;-78
2022/04/20 05:17:38;;;;;;;;;;;;;;;6.05;79.30;99959.66;86180;1329;22569;-79
2022/04/20 05:19:42;;;;;;;;;;;;;;;6.07;79.45;99960.13;86150;1323;23103;-79
2022/04/20 05:21:48;;;;;;;;;;;;;;;6.09;79.63;99956.97;86153;1325;22504;-78
2022/04/20 05:23:58;;;;;;;;;;;;;;;6.10;79.49;99953.30;86148;1331;23099;-78
2022/04/20 05:26:05;;;;;;;;;;;;;;;6.13;79.56;99948.71;86087;1329;23170;-78
2022/04/20 05:28:10;;;;;;;;;;;;;;;6.16;79.53;99945.34;86153;1328;22463;-78
2022/04/20 05:30:15;;;;;;;;;;;;;;;6.19;79.66;99943.70;86163;1328;22527;-74
2022/04/20 05:32:19;;;;;;;;;;;;;;;6.21;79.75;99944.52;86084;1329;23215;-73
2022/04/20 05:34:30;;;;;;;;;;;;;;;6.23;79.68;99946.55;86190;1325;22545;-78
2022/04/20 05:41:41;;;;;;;;;;;;;;;6.33;79.77;99949.72;86159;1331;22459;-74
2022/04/20 05:43:46;;;;;;;;;;;;;;;6.39;79.51;99948.54;86156;1331;22450;-78
2022/04/20 05:45:51;;;;;;;;;;;;;;;6.41;79.54;99949.70;86142;1331;22461;-79
2022/04/20 05:47:57;;;;;;;;;;;;;;;6.43;79.80;99947.91;86135;1331;22481;-79
2022/04/20 05:50:06;;;;;;;;;;;;;;;6.46;79.63;99944.17;86146;1330;23031;-78
2022/04/20 05:52:11;;;;;;;;;;;;;;;6.49;79.61;99946.69;86160;1328;22532;-78
2022/04/20 05:54:15;;;;;;;;;;;;;;;6.51;79.72;99945.95;86178;1327;22438;-78
2022/04/20 05:56:20;;;;;;;;;;;;;;;6.54;79.54;99942.39;86090;1332;23055;-82
2022/04/20 05:58:28;;;;;;;;;;;;;;;6.57;79.72;99941.97;86158;1331;23152;-79
2022/04/20 06:00:32;;;;;;;;;;;;;;;6.57;79.34;99944.04;86160;1329;23281;-80
2022/04/20 06:02:37;;;;;;;;;;;;;;;6.60;79.51;99943.44;86174;1330;22588;-79
2022/04/20 06:04:42;;;;;;;;;;;;;;;6.66;79.67;99941.52;86155;1331;23230;-73
2022/04/20 06:06:46;;;;;;;;;;;;;;;6.74;79.60;99939.91;86174;1328;22471;-73
2022/04/20 06:08:51;;;;;;;;;;;;;;;6.77;79.53;99941.21;86171;1327;22436;-74
2022/04/20 06:10:59;;;;;;;;;;;;;;;6.78;79.36;99938.06;86092;1330;22637;-79
2022/04/20 06:13:03;;;;;;;;;;;;;;;6.77;79.13;99938.27;86165;1327;22526;-78
2022/04/20 06:15:11;;;;;;;;;;;;;;;6.75;79.17;99941.27;86182;1327;22985;-79
2022/04/20 06:17:16;;;;;;;;;;;;;;;6.72;78.95;99940.66;86173;1329;23167;-80
2022/04/20 06:19:20;;;;;;;;;;;;;;;6.69;79.11;99942.83;85436;1331;1002247;-80
2022/04/20 06:21:24;;;;;;;;;;;;;;;6.66;78.94;99944.31;86183;1326;22458;-80
2022/04/20 06:23:29;;;;;;;;;;;;;;;6.64;79.05;99938.98;86169;1329;22472;-79
2022/04/20 06:25:34;;;;;;;;;;;;;;;6.62;78.91;99939.56;86174;1327;23560;-80
2022/04/20 06:27:42;;;;;;;;;;;;;;;6.63;79.22;99938.67;86188;1327;23085;-80
2022/04/20 06:29:50;;;;;;;;;;;;;;;6.63;79.41;99935.89;86158;1330;23578;-80
2022/04/20 06:31:58;;;;;;;;;;;;;;;6.64;79.24;99933.95;86153;1328;23028;-80
2022/04/20 06:34:06;;;;;;;;;;;;;;;6.66;79.46;99929.58;86192;1330;23020;-82
2022/04/20 06:36:10;;;;;;;;;;;;;;;6.68;79.64;99930.18;86190;1327;23026;-78
2022/04/20 06:38:17;;;;;;;;;;;;;;;6.69;79.63;99926.17;86152;1325;22563;-74
2022/04/20 06:40:22;;;;;;;;;;;;;;;6.69;79.66;99918.54;86143;1331;22450;-74
2022/04/20 06:42:28;;;;;;;;;;;;;;;6.69;79.70;99912.13;86114;1332;22462;-74
2022/04/20 06:44:36;;;;;;;;;;;;;;;6.71;80.02;99913.98;85453;1326;1002820;-81
2022/04/20 06:46:41;;;;;;;;;;;;;;;6.72;79.99;99914.66;86138;1326;22503;-80
2022/04/20 06:48:46;;;;;;;;;;;;;;;6.72;79.84;99916.57;86156;1331;22526;-80
2022/04/20 06:50:51;;;;;;;;;;;;;;;6.73;79.89;99919.48;86078;1329;22464;-81
2022/04/20 07:00:08;;;;;;;;;;;;;;;6.74;80.20;99909.05;86153;1328;23154;-74
2022/04/20 07:02:14;;;;;;;;;;;;;;;6.77;80.00;99910.02;86093;1330;23226;-73
2022/04/20 07:04:22;;;;;;;;;;;;;;;6.82;80.34;99908.12;86158;1330;23064;-73
2022/04/20 07:06:32;;;;;;;;;;;;;;;6.89;80.16;99908.79;86177;1329;22559;-73
2022/04/20 07:08:37;;;;;;;;;;;;;;;6.93;80.16;99903.95;86168;1331;22420;-74
2022/04/20 07:10:41;;;;;;;;;;;;;;;7.00;80.08;99904.30;86172;1331;23232;-74
2022/04/20 07:12:46;;;;;;;;;;;;;;;7.06;79.81;99901.66;86183;1329;22573;-74
2022/04/20 07:14:55;;;;;;;;;;;;;;;7.13;79.88;99901.95;86099;1329;22380;-74
2022/04/20 07:17:03;;;;;;;;;;;;;;;7.19;80.04;99902.98;86156;1331;22579;-74
2022/04/20 07:19:11;;;;;;;;;;;;;;;7.23;79.88;99905.64;86152;1327;22401;-80
2022/04/20 07:21:15;;;;;;;;;;;;;;;7.24;79.71;99902.65;86153;1327;22424;-80
2022/04/20 07:23:23;;;;;;;;;;;;;;;7.30;79.49;99900.41;86160;1326;23240;-74
2022/04/20 07:25:29;;;;;;;;;;;;;;;7.36;79.74;99898.45;86149;1331;22530;-74
2022/04/20 07:27:34;;;;;;;;;;;;;;;7.40;79.56;99898.69;86094;1332;23141;-75
2022/04/20 07:29:39;;;;;;;;;;;;;;;7.44;79.54;99894.05;86176;1329;23075;-74
2022/04/20 07:31:44;;;;;;;;;;;;;;;7.45;79.41;99889.48;86137;1327;23196;-74
2022/04/20 07:33:51;;;;;;;;;;;;;;;7.49;79.58;99885.54;86174;1329;23069;-74
2022/04/20 07:36:02;;;;;;;;;;;;;;;7.57;79.82;99884.94;86161;1326;23080;-80
2022/04/20 07:38:12;;;;;;;;;;;;;;;7.68;80.10;99887.85;86186;1328;23163;-73
2022/04/20 07:40:17;;;;;;;;;;;;;;;7.85;80.47;99886.25;86159;1331;23138;-73
2022/04/20 07:42:25;;;;;;;;;;;;;;;8.04;80.41;99876.02;86153;1327;23114;-73
2022/04/20 07:44:30;;;;;;;;;;;;;;;8.18;80.04;99874.48;86153;1330;23196;-74
2022/04/20 07:46:38;;;;;;;;;;;;;;;8.32;79.93;99868.05;86154;1328;22518;-73
2022/04/20 07:48:46;;;;;;;;;;;;;;;8.52;80.16;99861.08;86100;1332;22438;-82
2022/04/20 07:50:54;;;;;;;;;;;;;;;8.68;79.46;99863.23;86159;1331;23108;-73
2022/04/20 07:53:05;;;;;;;;;;;;;;;8.81;79.14;99856.33;86095;1332;23021;-73
2022/04/20 07:55:11;;;;;;;;;;;;;;;9.02;79.00;99850.80;86155;1329;22871;-73
2022/04/20 07:57:21;;;;;;;;;;;;;;;9.48;80.68;99850.45;86144;1331;22449;-73
2022/04/20 07:59:28;;;;;;;;;;;;;;;10.73;83.11;99853.84;86186;1329;22476;-81
2022/04/20 08:01:33;;;;;;;;;;;;;;;11.85;80.32;99855.36;86150;1331;22579;-80
2022/04/20 08:03:38;;;;;;;;;;;;;;;13.07;77.77;99842.98;86166;1329;23171;-73
2022/04/20 08:05:43;;;;;;;;;;;;;;;13.85;73.45;99847.55;86179;1327;22462;-73
2022/04/20 08:07:54;;;;;;;;;;;;;;;13.89;69.00;99856.27;86031;1332;23197;-74
2022/04/20 08:09:58;;;;;;;;;;;;;;;13.63;66.48;99864.28;86157;1328;23208;-74
2022/04/20 08:12:08;;;;;;;;;;;;;;;13.36;65.85;99862.74;86103;1329;23193;-74
2022/04/20 08:14:13;;;;;;;;;;;;;;;13.10;65.29;99862.23;86165;1327;23121;-81
2022/04/20 08:16:18;;;;;;;;;;;;;;;12.84;65.41;99864.03;86168;1330;22444;-80
2022/04/20 08:18:22;;;;;;;;;;;;;;;12.53;65.03;99865.92;86156;1331;22626;-80
2022/04/20 08:20:27;;;;;;;;;;;;;;;12.19;64.69;99872.98;86179;1328;23109;-81
2022/04/20 08:22:41;;;;;;;;;;;;;;;11.84;64.97;99873.73;86149;1331;23059;-80
2022/04/20 08:24:47;;;;;;;;;;;;;;;11.59;66.14;99878.14;86191;1329;23213;-81
2022/04/20 08:26:52;;;;;;;;;;;;;;;11.42;66.86;99877.25;86162;1330;23240;-80
2022/04/20 08:28:59;;;;;;;;;;;;;;;11.21;66.53;99872.32;86162;1330;23330;-74
2022/04/20 08:31:04;;;;;;;;;;;;;;;10.99;67.27;99864.83;86165;1330;23285;-73
2022/04/20 08:33:09;;;;;;;;;;;;;;;10.81;67.47;99865.35;86182;1329;23109;-81
2022/04/20 08:35:19;;;;;;;;;;;;;;;10.65;67.45;99865.23;86177;1329;22691;-73
2022/04/20 08:37:24;;;;;;;;;;;;;;;10.47;67.57;99864.64;86152;1330;23248;-73
2022/04/20 08:39:29;;;;;;;;;;;;;;;10.28;67.82;99866.02;86190;1328;22542;-80
2022/04/20 08:41:34;;;;;;;;;;;;;;;10.11;68.24;99859.58;86162;1329;23034;-79
2022/04/20 08:43:45;;;;;;;;;;;;;;;9.99;68.69;99861.53;86183;1328;23146;-80
2022/04/20 08:45:51;;;;;;;;;;;;;;;9.86;68.84;99866.27;86164;1331;22990;-79
2022/04/20 08:47:58;;;;;;;;;;;;;;;9.72;69.03;99869.48;86156;1330;22560;-78
2022/04/20 08:50:04;;;;;;;;;;;;;;;9.60;69.48;99867.92;86151;1330;22545;-77
2022/04/20 08:54:32;;;;;;;;;;;;;;;9.39;70.35;99866.70;86145;1330;23113;-74
2022/04/20 08:59:07;;;;;;;;;;;;;;;9.28;71.01;99868.72;86175;1327;22552;-77
2022/04/20 09:01:12;;;;;;;;;;;;;;;9.26;71.31;99870.17;86172;1330;22529;-77
2022/04/20 09:03:20;;;;;;;;;;;;;;;9.26;71.66;99872.78;86186;1330;23149;-76
2022/04/20 09:05:28;;;;;;;;;;;;;;;9.25;71.41;99871.24;86181;1327;23220;-77
2022/04/20 09:07:34;;;;;;;;;;;;;;;9.24;71.90;99871.65;86188;1330;22449;-77
2022/04/20 09:09:39;;;;;;;;;;;;;;;9.24;72.04;99876.52;86156;1331;22510;-77
2022/04/20 09:11:43;;;;;;;;;;;;;;;9.24;72.13;99878.11;86143;1330;22516;-77
2022/04/20 09:13:51;;;;;;;;;;;;;;;9.21;72.31;99879.43;86147;1331;23200;-78
2022/04/20 09:16:05;;;;;;;;;;;;;;;9.20;72.10;99883.84;86182;1326;23045;-77
2022/04/20 09:18:15;;;;;;;;;;;;;;;9.15;71.94;99888.38;86151;1331;23136;-77
2022/04/20 09:20:20;;;;;;;;;;;;;;;9.09;72.12;99891.02;86170;1327;22573;-74
2022/04/20 09:22:25;;;;;;;;;;;;;;;9.03;71.90;99896.16;86158;1331;22430;-74
2022/04/20 09:24:34;;;;;;;;;;;;;;;8.96;72.22;99902.52;86147;1327;23221;-74
2022/04/20 09:26:52;;;;;;;;;;;;;;;8.87;72.36;99899.03;86166;1323;23115;-74
2022/04/20 09:29:06;;;;;;;;;;;;;;;8.79;72.50;99895.00;86095;1332;22463;-77
2022/04/20 09:31:13;;;;;;;;;;;;;;;8.73;72.59;99894.91;86177;1330;22416;-76
2022/04/20 09:33:40;;;;;;;;;;;;;;;8.69;72.80;99889.64;86175;1330;22412;-77
2022/04/20 09:35:45;;;;;;;;;;;;;;;8.67;72.83;99891.29;86144;1330;23168;-77
2022/04/20 09:38:07;;;;;;;;;;;;;;;8.67;73.00;99892.85;86164;1331;22501;-76
2022/04/20 09:40:13;;;;;;;;;;;;;;;8.66;72.93;99894.27;86154;1329;22582;-75
2022/04/20 09:42:21;;;;;;;;;;;;;;;8.65;72.96;99891.34;86098;1332;22730;-75
2022/04/20 09:44:26;;;;;;;;;;;;;;;8.66;73.27;99897.23;86180;1330;22639;-75
2022/04/20 09:48:53;;;;;;;;;;;;;;;8.67;73.14;99898.23;86148;1331;23149;-76
2022/04/20 09:51:20;;;;;;;;;;;;;;;8.72;73.50;99898.77;86111;1331;23107;-75
2022/04/20 09:53:24;;;;;;;;;;;;;;;8.82;73.53;99904.11;85985;1330;22499;-78
2022/04/20 09:55:36;;;;;;;;;;;;;;;8.89;73.38;99911.16;86154;1331;23192;-78
2022/04/20 09:57:44;;;;;;;;;;;;;;;8.96;73.21;99913.85;86148;1331;23119;-77
2022/04/20 10:00:01;;;;;;;;;;;;;;;9.01;73.32;99915.72;86163;1331;22450;-77
2022/04/20 10:02:12;;;;;;;;;;;;;;;9.07;73.30;99920.02;86159;1329;23064;-78
2022/04/20 10:04:19;;;;;;;;;;;;;;;9.12;73.03;99921.23;86088;1332;23118;-78
2022/04/20 10:06:27;;;;;;;;;;;;;;;9.15;73.12;99922.33;86169;1328;22514;-78
2022/04/20 10:08:33;;;;;;;;;;;;;;;9.23;72.93;99920.79;86185;1330;22583;-77
2022/04/20 10:10:37;;;;;;;;;;;;;;;9.37;73.17;99921.27;86103;1332;22527;-76
2022/04/20 10:12:46;;;;;;;;;;;;;;;9.60;73.21;99919.27;86192;1330;22556;-77
2022/04/20 10:17:14;;;;;;;;;;;;;;;10.03;72.19;99915.00;86152;1330;22458;-79
2022/04/20 10:19:25;;;;;;;;;;;;;;;10.24;72.25;99918.69;86174;1326;22981;-79
2022/04/20 10:21:32;;;;;;;;;;;;;;;10.38;71.33;99919.65;86189;1329;23046;-80
2022/04/20 10:23:42;;;;;;;;;;;;;;;10.44;70.35;99916.58;86168;1331;23026;-74
2022/04/20 10:25:51;;;;;;;;;;;;;;;10.48;70.36;99913.24;86168;1331;22389;-75
2022/04/20 10:28:05;;;;;;;;;;;;;;;10.54;70.12;99912.09;86100;1332;22615;-74
2022/04/20 10:30:17;;;;;;;;;;;;;;;10.55;69.20;99911.02;86169;1330;23224;-74
2022/04/20 10:32:24;;;;;;;;;;;;;;;10.49;68.10;99912.15;86158;1331;22494;-74
2022/04/20 10:34:33;;;;;;;;;;;;;;;10.40;67.90;99919.90;86153;1330;22450;-74
2022/04/20 10:36:41;;;;;;;;;;;;;;;10.36;68.02;99929.15;86189;1327;22558;-73
2022/04/20 10:38:46;;;;;;;;;;;;;;;10.34;67.87;99930.64;86153;1328;22498;-78
2022/04/20 10:41:05;;;;;;;;;;;;;;;10.29;68.29;99929.07;86183;1329;22692;-79
2022/04/20 10:43:22;;;;;;;;;;;;;;;10.22;67.99;99927.27;86189;1330;23192;-79
2022/04/20 10:45:27;;;;;;;;;;;;;;;10.12;68.07;99929.27;86148;1330;23223;-74
2022/04/20 10:47:36;;;;;;;;;;;;;;;10.00;68.28;99925.43;86174;1330;23190;-75
2022/04/20 10:49:44;;;;;;;;;;;;;;;9.90;68.74;99925.17;86189;1330;22432;-81
2022/04/20 10:51:51;;;;;;;;;;;;;;;9.84;69.30;99926.09;86099;1331;23068;-75
2022/04/20 10:54:27;;;;;;;;;;;;;;;9.79;69.98;99924.92;86157;1328;23111;-75
2022/04/20 10:56:38;;;;;;;;;;;;;;;9.73;69.98;99927.98;86166;1331;23143;-75
2022/04/20 10:59:08;;;;;;;;;;;;;;;9.66;69.71;99926.34;86116;1330;22438;-78
2022/04/20 11:01:13;;;;;;;;;;;;;;;9.64;69.94;99928.55;86072;1330;22561;-78
2022/04/20 11:03:21;;;;;;;;;;;;;;;9.63;70.33;99925.42;86173;1331;22512;-76
2022/04/20 11:08:38;;;;;;;;;;;;;;;9.60;70.02;99928.85;86102;1310;23152;-85
2022/04/20 11:18:38;;;;;;;;;;;;;;;9.59;70.08;99927.67;85955;1332;23151;-77
2022/04/20 11:21:23;;;;;;;;;;;;;;;9.68;70.49;99926.45;86020;1333;23171;-77
2022/04/20 11:23:51;;;;;;;;;;;;;;;9.67;69.65;99924.74;86032;1331;23065;-78
2022/04/20 11:25:56;;;;;;;;;;;;;;;9.66;69.79;99925.84;86037;1333;22511;-77
2022/04/20 11:28:03;;;;;;;;;;;;;;;9.65;69.69;99929.88;86036;1333;23064;-77
2022/04/20 11:30:14;;;;;;;;;;;;;;;9.65;69.85;99930.05;85875;1336;23275;-78
2022/04/20 11:32:18;;;;;;;;;;;;;;;9.68;69.93;99930.80;86047;1333;23129;-78
2022/04/20 11:34:27;;;;;;;;;;;;;;;9.72;70.19;99934.29;86037;1333;23163;-74
2022/04/20 11:36:36;;;;;;;;;;;;;;;9.75;70.57;99929.62;85982;1335;23192;-73
2022/04/20 11:38:41;;;;;;;;;;;;;;;9.81;69.92;99928.84;86050;1330;22690;-78
2022/04/20 11:40:49;;;;;;;;;;;;;;;9.82;68.88;99927.39;86043;1333;22427;-78
2022/04/20 11:43:05;;;;;;;;;;;;;;;9.82;68.81;99929.33;86040;1333;22469;-78
2022/04/20 11:45:12;;;;;;;;;;;;;;;9.84;68.84;99931.33;85996;1333;22318;-77
2022/04/20 11:47:22;;;;;;;;;;;;;;;9.85;68.67;99932.36;86030;1331;23377;-79
2022/04/20 11:49:32;;;;;;;;;;;;;;;9.82;68.49;99929.33;85980;1334;22516;-74